sensor_id;sensor_type;location;lat;lon;timestamp;pressure;altitude;pressure_sealevel;temperature;humidity
5146;BME280;2591;48.144;15.152;2023-02-03T00:00:41;77772.88;;;-144.65;100.00
5146;BME280;2591;48.144;15.152;2023-02-03T00:03:08;77789.19;;;-144.65;100.00
5146;BME280;2591;48.144;15.152;2023-02-03T00:05:36;77795.31;;;-144.65;100.00
5146;BME280;2591;48.144;15.152;2023-02-03T00:08:06;77807.53;;;-144.65;100.00
5146;BME280;2591;48.144;15.152;2023-02-03T00:10:35;77795.31;;;-144.65;100.00
5146;BME280;2591;48.144;15.152;2023-02-03T00:13:03;77807.53;;;-144.65;100.00
5146;BME280;2591;48.144;15.152;2023-02-03T00:15:32;77807.53;;;-144.65;100.00
5146;BME280;2591;48.144;15.152;2023-02-03T00:18:00;77819.78;;;-144.65;100.00
5146;BME280;2591;48.144;15.152;2023-02-03T00:20:28;77823.84;;;-144.65;100.00
5146;BME280;2591;48.144;15.152;2023-02-03T00:23:02;77823.84;;;-144.65;100.00
5146;BME280;2591;48.144;15.152;2023-02-03T00:25:30;77827.94;;;-144.65;100.00
5146;BME280;2591;48.144;15.152;2023-02-03T00:27:58;77821.81;;;-144.65;100.00
5146;BME280;2591;48.144;15.152;2023-02-03T00:30:26;77825.91;;;-144.65;100.00
5146;BME280;2591;48.144;15.152;2023-02-03T00:32:56;77825.91;;;-144.65;100.00
5146;BME280;2591;48.144;15.152;2023-02-03T00:35:24;77829.97;;;-144.65;100.00
5146;BME280;2591;48.144;15.152;2023-02-03T00:37:53;77821.81;;;-144.65;100.00
5146;BME280;2591;48.144;15.152;2023-02-03T00:40:24;77829.97;;;-144.65;100.00
5146;BME280;2591;48.144;15.152;2023-02-03T00:42:52;77838.13;;;-144.65;100.00
5146;BME280;2591;48.144;15.152;2023-02-03T00:45:21;77836.09;;;-144.65;100.00
5146;BME280;2591;48.144;15.152;2023-02-03T00:47:48;77829.97;;;-144.65;100.00
5146;BME280;2591;48.144;15.152;2023-02-03T00:50:18;77832.03;;;-144.65;100.00
5146;BME280;2591;48.144;15.152;2023-02-03T00:52:45;77834.06;;;-144.65;100.00
5146;BME280;2591;48.144;15.152;2023-02-03T00:55:13;77832.03;;;-144.65;100.00
5146;BME280;2591;48.144;15.152;2023-02-03T00:57:41;77829.97;;;-144.65;100.00
5146;BME280;2591;48.144;15.152;2023-02-03T01:00:10;77819.78;;;-144.65;100.00
5146;BME280;2591;48.144;15.152;2023-02-03T01:02:38;77821.81;;;-144.65;100.00
5146;BME280;2591;48.144;15.152;2023-02-03T01:05:07;77815.69;;;-144.65;100.00
5146;BME280;2591;48.144;15.152;2023-02-03T01:07:36;77815.69;;;-144.65;100.00
5146;BME280;2591;48.144;15.152;2023-02-03T01:10:06;77811.63;;;-144.65;100.00
5146;BME280;2591;48.144;15.152;2023-02-03T01:12:33;77805.50;;;-144.65;100.00
5146;BME280;2591;48.144;15.152;2023-02-03T01:15:01;77811.63;;;-144.65;100.00
5146;BME280;2591;48.144;15.152;2023-02-03T01:17:29;77799.38;;;-144.65;100.00
5146;BME280;2591;48.144;15.152;2023-02-03T01:19:57;77799.38;;;-144.65;100.00
5146;BME280;2591;48.144;15.152;2023-02-03T01:22:24;77795.31;;;-144.65;100.00
5146;BME280;2591;48.144;15.152;2023-02-03T01:24:53;77795.31;;;-144.65;100.00
5146;BME280;2591;48.144;15.152;2023-02-03T01:27:21;77799.38;;;-144.65;100.00
5146;BME280;2591;48.144;15.152;2023-02-03T01:29:49;77791.22;;;-144.65;100.00
5146;BME280;2591;48.144;15.152;2023-02-03T01:32:17;77783.06;;;-144.65;100.00
5146;BME280;2591;48.144;15.152;2023-02-03T01:34:45;77778.97;;;-144.65;100.00
5146;BME280;2591;48.144;15.152;2023-02-03T01:37:12;77774.91;;;-144.65;100.00
5146;BME280;2591;48.144;15.152;2023-02-03T01:39:42;77774.91;;;-144.65;100.00
5146;BME280;2591;48.144;15.152;2023-02-03T01:42:13;77778.97;;;-144.65;100.00
5146;BME280;2591;48.144;15.152;2023-02-03T01:44:43;77774.91;;;-144.65;100.00
5146;BME280;2591;48.144;15.152;2023-02-03T01:47:23;77770.81;;;-144.65;100.00
5146;BME280;2591;48.144;15.152;2023-02-03T01:49:57;77766.75;;;-144.65;100.00
5146;BME280;2591;48.144;15.152;2023-02-03T01:52:26;77758.59;;;-144.65;100.00
5146;BME280;2591;48.144;15.152;2023-02-03T01:54:56;77760.63;;;-144.65;100.00
5146;BME280;2591;48.144;15.152;2023-02-03T01:57:31;77758.59;;;-144.65;100.00
5146;BME280;2591;48.144;15.152;2023-02-03T02:00:02;77760.63;;;-144.65;100.00
5146;BME280;2591;48.144;15.152;2023-02-03T02:02:31;77750.44;;;-144.65;100.00
5146;BME280;2591;48.144;15.152;2023-02-03T02:05:03;77746.34;;;-144.65;100.00
5146;BME280;2591;48.144;15.152;2023-02-03T02:07:35;77748.38;;;-144.65;100.00
5146;BME280;2591;48.144;15.152;2023-02-03T02:10:04;77746.34;;;-144.65;100.00
5146;BME280;2591;48.144;15.152;2023-02-03T02:12:33;77750.44;;;-144.65;100.00
5146;BME280;2591;48.144;15.152;2023-02-03T02:15:01;77744.31;;;-144.65;100.00
5146;BME280;2591;48.144;15.152;2023-02-03T02:17:45;77746.34;;;-144.65;100.00
5146;BME280;2591;48.144;15.152;2023-02-03T02:20:32;77742.28;;;-144.65;100.00
5146;BME280;2591;48.144;15.152;2023-02-03T02:23:23;77742.28;;;-144.65;100.00
5146;BME280;2591;48.144;15.152;2023-02-03T02:26:22;77738.19;;;-144.65;100.00
5146;BME280;2591;48.144;15.152;2023-02-03T02:29:19;77744.31;;;-144.65;100.00
5146;BME280;2591;48.144;15.152;2023-02-03T02:31:58;77746.34;;;-144.65;100.00
5146;BME280;2591;48.144;15.152;2023-02-03T02:34:44;77746.34;;;-144.65;100.00
5146;BME280;2591;48.144;15.152;2023-02-03T02:37:21;77740.22;;;-144.65;100.00
5146;BME280;2591;48.144;15.152;2023-02-03T02:39:55;77742.28;;;-144.65;100.00
5146;BME280;2591;48.144;15.152;2023-02-03T02:42:29;77740.22;;;-144.65;100.00
5146;BME280;2591;48.144;15.152;2023-02-03T02:45:06;77738.19;;;-144.65;100.00
5146;BME280;2591;48.144;15.152;2023-02-03T02:47:38;77742.28;;;-144.65;100.00
5146;BME280;2591;48.144;15.152;2023-02-03T02:50:09;77738.19;;;-144.65;100.00
5146;BME280;2591;48.144;15.152;2023-02-03T02:52:41;77746.34;;;-144.65;100.00
5146;BME280;2591;48.144;15.152;2023-02-03T02:55:15;77746.34;;;-144.65;100.00
5146;BME280;2591;48.144;15.152;2023-02-03T02:57:44;77748.38;;;-144.65;100.00
5146;BME280;2591;48.144;15.152;2023-02-03T03:00:14;77742.28;;;-144.65;100.00
5146;BME280;2591;48.144;15.152;2023-02-03T03:02:43;77738.19;;;-144.65;100.00
5146;BME280;2591;48.144;15.152;2023-02-03T03:05:11;77738.19;;;-144.65;100.00
5146;BME280;2591;48.144;15.152;2023-02-03T03:07:41;77736.16;;;-144.65;100.00
5146;BME280;2591;48.144;15.152;2023-02-03T03:10:15;77734.09;;;-144.65;100.00
5146;BME280;2591;48.144;15.152;2023-02-03T03:12:48;77730.03;;;-144.65;100.00
5146;BME280;2591;48.144;15.152;2023-02-03T03:15:20;77725.94;;;-144.65;100.00
5146;BME280;2591;48.144;15.152;2023-02-03T03:17:54;77723.91;;;-144.65;100.00
5146;BME280;2591;48.144;15.152;2023-02-03T03:20:26;77715.75;;;-144.65;100.00
5146;BME280;2591;48.144;15.152;2023-02-03T03:22:58;77713.72;;;-144.65;100.00
5146;BME280;2591;48.144;15.152;2023-02-03T03:25:30;77701.47;;;-144.65;100.00
5146;BME280;2591;48.144;15.152;2023-02-03T03:28:03;77695.34;;;-144.65;100.00
5146;BME280;2591;48.144;15.152;2023-02-03T03:30:36;77705.56;;;-144.65;100.00
5146;BME280;2591;48.144;15.152;2023-02-03T03:33:08;77701.47;;;-144.65;100.00
5146;BME280;2591;48.144;15.152;2023-02-03T03:35:40;77709.63;;;-144.65;100.00
5146;BME280;2591;48.144;15.152;2023-02-03T03:38:15;77709.63;;;-144.65;100.00
5146;BME280;2591;48.144;15.152;2023-02-03T03:40:50;77701.47;;;-144.65;100.00
5146;BME280;2591;48.144;15.152;2023-02-03T03:43:20;77699.44;;;-144.65;100.00
5146;BME280;2591;48.144;15.152;2023-02-03T03:45:53;77703.50;;;-144.65;100.00
5146;BME280;2591;48.144;15.152;2023-02-03T03:48:27;77701.47;;;-144.65;100.00
5146;BME280;2591;48.144;15.152;2023-02-03T03:51:01;77699.44;;;-144.65;100.00
5146;BME280;2591;48.144;15.152;2023-02-03T03:53:31;77705.56;;;-144.65;100.00
5146;BME280;2591;48.144;15.152;2023-02-03T03:56:01;77707.59;;;-144.65;100.00
5146;BME280;2591;48.144;15.152;2023-02-03T03:58:31;77709.63;;;-144.65;100.00
5146;BME280;2591;48.144;15.152;2023-02-03T04:01:01;77717.78;;;-144.65;100.00
5146;BME280;2591;48.144;15.152;2023-02-03T04:03:36;77719.84;;;-144.65;100.00
5146;BME280;2591;48.144;15.152;2023-02-03T04:06:05;77709.63;;;-144.65;100.00
5146;BME280;2591;48.144;15.152;2023-02-03T04:08:33;77709.63;;;-144.65;100.00
5146;BME280;2591;48.144;15.152;2023-02-03T04:11:00;77709.63;;;-144.65;100.00
5146;BME280;2591;48.144;15.152;2023-02-03T04:13:28;77701.47;;;-144.65;100.00
5146;BME280;2591;48.144;15.152;2023-02-03T04:15:56;77707.59;;;-144.65;100.00
5146;BME280;2591;48.144;15.152;2023-02-03T04:18:24;77709.63;;;-144.65;100.00
5146;BME280;2591;48.144;15.152;2023-02-03T04:20:53;77715.75;;;-144.65;100.00
5146;BME280;2591;48.144;15.152;2023-02-03T04:23:21;77705.56;;;-144.65;100.00
5146;BME280;2591;48.144;15.152;2023-02-03T04:25:49;77703.50;;;-144.65;100.00
5146;BME280;2591;48.144;15.152;2023-02-03T04:28:17;77701.47;;;-144.65;100.00
5146;BME280;2591;48.144;15.152;2023-02-03T04:30:44;77699.44;;;-144.65;100.00
5146;BME280;2591;48.144;15.152;2023-02-03T04:33:12;77697.41;;;-144.65;100.00
5146;BME280;2591;48.144;15.152;2023-02-03T04:35:40;77689.25;;;-144.65;100.00
5146;BME280;2591;48.144;15.152;2023-02-03T04:38:09;77681.06;;;-144.65;100.00
5146;BME280;2591;48.144;15.152;2023-02-03T04:40:37;77679.03;;;-144.65;100.00
5146;BME280;2591;48.144;15.152;2023-02-03T04:43:05;77681.06;;;-144.65;100.00
5146;BME280;2591;48.144;15.152;2023-02-03T04:45:33;77681.06;;;-144.65;100.00
5146;BME280;2591;48.144;15.152;2023-02-03T04:48:01;77674.97;;;-144.65;100.00
5146;BME280;2591;48.144;15.152;2023-02-03T04:50:30;77672.91;;;-144.65;100.00
5146;BME280;2591;48.144;15.152;2023-02-03T04:52:59;77677.00;;;-144.65;100.00
5146;BME280;2591;48.144;15.152;2023-02-03T04:55:28;77677.00;;;-144.65;100.00
5146;BME280;2591;48.144;15.152;2023-02-03T04:57:55;77681.06;;;-144.65;100.00
5146;BME280;2591;48.144;15.152;2023-02-03T05:00:24;77677.00;;;-144.65;100.00
5146;BME280;2591;48.144;15.152;2023-02-03T05:02:52;77672.91;;;-144.65;100.00
5146;BME280;2591;48.144;15.152;2023-02-03T05:05:20;77672.91;;;-144.65;100.00
5146;BME280;2591;48.144;15.152;2023-02-03T05:07:48;77672.91;;;-144.65;100.00
5146;BME280;2591;48.144;15.152;2023-02-03T05:10:16;77658.63;;;-144.65;100.00
5146;BME280;2591;48.144;15.152;2023-02-03T05:12:45;77654.56;;;-144.65;100.00
5146;BME280;2591;48.144;15.152;2023-02-03T05:15:13;77652.53;;;-144.65;100.00
5146;BME280;2591;48.144;15.152;2023-02-03T05:17:40;77648.44;;;-144.65;100.00
5146;BME280;2591;48.144;15.152;2023-02-03T05:20:09;77648.44;;;-144.65;100.00
5146;BME280;2591;48.144;15.152;2023-02-03T05:22:37;77640.28;;;-144.65;100.00
5146;BME280;2591;48.144;15.152;2023-02-03T05:25:06;77632.13;;;-144.65;100.00
5146;BME280;2591;48.144;15.152;2023-02-03T05:27:36;77640.28;;;-144.65;100.00
5146;BME280;2591;48.144;15.152;2023-02-03T05:30:06;77621.94;;;-144.65;100.00
5146;BME280;2591;48.144;15.152;2023-02-03T05:32:34;77623.97;;;-144.65;100.00
5146;BME280;2591;48.144;15.152;2023-02-03T05:35:02;77615.81;;;-144.65;100.00
5146;BME280;2591;48.144;15.152;2023-02-03T05:37:30;77607.66;;;-144.65;100.00
5146;BME280;2591;48.144;15.152;2023-02-03T05:39:58;77607.66;;;-144.65;100.00
5146;BME280;2591;48.144;15.152;2023-02-03T05:42:47;77611.72;;;-144.65;100.00
5146;BME280;2591;48.144;15.152;2023-02-03T05:45:15;77609.69;;;-144.65;100.00
5146;BME280;2591;48.144;15.152;2023-02-03T05:47:43;77613.75;;;-144.65;100.00
5146;BME280;2591;48.144;15.152;2023-02-03T05:50:11;77609.69;;;-144.65;100.00
5146;BME280;2591;48.144;15.152;2023-02-03T05:52:39;77599.50;;;-144.65;100.00
5146;BME280;2591;48.144;15.152;2023-02-03T05:55:06;77599.50;;;-144.65;100.00
5146;BME280;2591;48.144;15.152;2023-02-03T05:57:34;77591.31;;;-144.65;100.00
5146;BME280;2591;48.144;15.152;2023-02-03T06:00:03;77579.09;;;-144.65;100.00
5146;BME280;2591;48.144;15.152;2023-02-03T06:02:33;77572.97;;;-144.65;100.00
5146;BME280;2591;48.144;15.152;2023-02-03T06:05:00;77570.94;;;-144.65;100.00
5146;BME280;2591;48.144;15.152;2023-02-03T06:07:28;77556.66;;;-144.65;100.00
5146;BME280;2591;48.144;15.152;2023-02-03T06:09:56;77560.72;;;-144.65;100.00
5146;BME280;2591;48.144;15.152;2023-02-03T06:12:24;77562.78;;;-144.65;100.00
5146;BME280;2591;48.144;15.152;2023-02-03T06:14:54;77562.78;;;-144.65;100.00
5146;BME280;2591;48.144;15.152;2023-02-03T06:17:22;77560.72;;;-144.65;100.00
5146;BME280;2591;48.144;15.152;2023-02-03T06:19:51;77558.69;;;-144.65;100.00
5146;BME280;2591;48.144;15.152;2023-02-03T06:22:19;77550.53;;;-144.65;100.00
5146;BME280;2591;48.144;15.152;2023-02-03T06:24:47;77540.34;;;-144.65;100.00
5146;BME280;2591;48.144;15.152;2023-02-03T06:27:15;77538.28;;;-144.65;100.00
5146;BME280;2591;48.144;15.152;2023-02-03T06:29:43;77534.22;;;-144.65;100.00
5146;BME280;2591;48.144;15.152;2023-02-03T06:32:11;77524.03;;;-144.65;100.00
5146;BME280;2591;48.144;15.152;2023-02-03T06:34:39;77521.97;;;-144.65;100.00
5146;BME280;2591;48.144;15.152;2023-02-03T06:37:08;77509.75;;;-144.65;100.00
5146;BME280;2591;48.144;15.152;2023-02-03T06:39:35;77501.59;;;-144.65;100.00
5146;BME280;2591;48.144;15.152;2023-02-03T06:42:04;77501.59;;;-144.65;100.00
5146;BME280;2591;48.144;15.152;2023-02-03T06:44:32;77493.44;;;-144.65;100.00
5146;BME280;2591;48.144;15.152;2023-02-03T06:47:00;77481.19;;;-144.65;100.00
5146;BME280;2591;48.144;15.152;2023-02-03T06:49:28;77471.00;;;-144.65;100.00
5146;BME280;2591;48.144;15.152;2023-02-03T06:51:56;77460.78;;;-144.65;100.00
5146;BME280;2591;48.144;15.152;2023-02-03T06:54:25;77448.56;;;-144.65;100.00
5146;BME280;2591;48.144;15.152;2023-02-03T06:56:54;77444.47;;;-144.65;100.00
5146;BME280;2591;48.144;15.152;2023-02-03T06:59:22;77438.34;;;-144.65;100.00
5146;BME280;2591;48.144;15.152;2023-02-03T07:01:49;77436.31;;;-144.65;100.00
5146;BME280;2591;48.144;15.152;2023-02-03T07:04:18;77440.41;;;-144.65;100.00
5146;BME280;2591;48.144;15.152;2023-02-03T07:06:46;77434.28;;;-144.65;100.00
5146;BME280;2591;48.144;15.152;2023-02-03T07:09:14;77424.09;;;-144.65;100.00
5146;BME280;2591;48.144;15.152;2023-02-03T07:11:43;77436.31;;;-144.65;100.00
5146;BME280;2591;48.144;15.152;2023-02-03T07:14:11;77440.41;;;-144.65;100.00
5146;BME280;2591;48.144;15.152;2023-02-03T07:16:39;77436.31;;;-144.65;100.00
5146;BME280;2591;48.144;15.152;2023-02-03T07:19:09;77440.41;;;-144.65;100.00
5146;BME280;2591;48.144;15.152;2023-02-03T07:21:37;77446.50;;;-144.65;100.00
5146;BME280;2591;48.144;15.152;2023-02-03T07:24:05;77444.47;;;-144.65;100.00
5146;BME280;2591;48.144;15.152;2023-02-03T07:26:33;77436.31;;;-144.65;100.00
5146;BME280;2591;48.144;15.152;2023-02-03T07:29:02;77436.31;;;-144.65;100.00
5146;BME280;2591;48.144;15.152;2023-02-03T07:31:30;77434.28;;;-144.65;100.00
5146;BME280;2591;48.144;15.152;2023-02-03T07:33:58;77424.09;;;-144.65;100.00
5146;BME280;2591;48.144;15.152;2023-02-03T07:36:26;77428.16;;;-144.65;100.00
5146;BME280;2591;48.144;15.152;2023-02-03T07:38:54;77415.91;;;-144.65;100.00
5146;BME280;2591;48.144;15.152;2023-02-03T07:41:22;77407.75;;;-144.65;100.00
5146;BME280;2591;48.144;15.152;2023-02-03T07:43:50;77405.72;;;-144.65;100.00
5146;BME280;2591;48.144;15.152;2023-02-03T07:46:19;77403.69;;;-144.65;100.00
5146;BME280;2591;48.144;15.152;2023-02-03T07:48:46;77395.53;;;-144.65;100.00
5146;BME280;2591;48.144;15.152;2023-02-03T07:51:14;77387.38;;;-144.65;100.00
5146;BME280;2591;48.144;15.152;2023-02-03T07:53:42;77371.06;;;-144.65;100.00
5146;BME280;2591;48.144;15.152;2023-02-03T07:56:10;77360.84;;;-144.65;100.00
5146;BME280;2591;48.144;15.152;2023-02-03T07:58:38;77360.84;;;-144.65;100.00
5146;BME280;2591;48.144;15.152;2023-02-03T08:01:10;77352.69;;;-144.65;100.00
5146;BME280;2591;48.144;15.152;2023-02-03T08:03:40;77342.50;;;-144.65;100.00
5146;BME280;2591;48.144;15.152;2023-02-03T08:06:08;77330.25;;;-144.65;100.00
5146;BME280;2591;48.144;15.152;2023-02-03T08:08:36;77328.22;;;-144.65;100.00
5146;BME280;2591;48.144;15.152;2023-02-03T08:11:04;77322.09;;;-144.65;100.00
5146;BME280;2591;48.144;15.152;2023-02-03T08:13:32;77318.03;;;-144.65;100.00
5146;BME280;2591;48.144;15.152;2023-02-03T08:16:00;77328.22;;;-144.65;100.00
5146;BME280;2591;48.144;15.152;2023-02-03T08:18:28;77322.09;;;-144.65;100.00
5146;BME280;2591;48.144;15.152;2023-02-03T08:20:59;77322.09;;;-144.65;100.00
5146;BME280;2591;48.144;15.152;2023-02-03T08:23:29;77330.25;;;-144.65;100.00
5146;BME280;2591;48.144;15.152;2023-02-03T08:25:57;77320.06;;;-144.65;100.00
5146;BME280;2591;48.144;15.152;2023-02-03T08:28:25;77307.81;;;-144.65;100.00
5146;BME280;2591;48.144;15.152;2023-02-03T08:30:52;77299.66;;;-144.65;100.00
5146;BME280;2591;48.144;15.152;2023-02-03T08:33:22;77297.63;;;-144.65;100.00
5146;BME280;2591;48.144;15.152;2023-02-03T08:35:50;77289.47;;;-144.65;100.00
5146;BME280;2591;48.144;15.152;2023-02-03T08:38:19;77289.47;;;-144.65;100.00
5146;BME280;2591;48.144;15.152;2023-02-03T08:40:47;77285.38;;;-144.65;100.00
5146;BME280;2591;48.144;15.152;2023-02-03T08:43:15;77285.38;;;-144.65;100.00
5146;BME280;2591;48.144;15.152;2023-02-03T08:45:43;77269.06;;;-144.65;100.00
5146;BME280;2591;48.144;15.152;2023-02-03T08:48:11;77265.00;;;-144.65;100.00
5146;BME280;2591;48.144;15.152;2023-02-03T08:50:40;77252.75;;;-144.65;100.00
5146;BME280;2591;48.144;15.152;2023-02-03T08:53:10;77238.47;;;-144.65;100.00
5146;BME280;2591;48.144;15.152;2023-02-03T08:55:39;77232.38;;;-144.65;100.00
5146;BME280;2591;48.144;15.152;2023-02-03T08:58:07;77236.44;;;-144.65;100.00
5146;BME280;2591;48.144;15.152;2023-02-03T09:00:35;77224.22;;;-144.65;100.00
5146;BME280;2591;48.144;15.152;2023-02-03T09:03:03;77220.13;;;-144.65;100.00
5146;BME280;2591;48.144;15.152;2023-02-03T09:05:31;77216.03;;;-144.65;100.00
5146;BME280;2591;48.144;15.152;2023-02-03T09:08:00;77207.88;;;-144.65;100.00
5146;BME280;2591;48.144;15.152;2023-02-03T09:10:28;77203.81;;;-144.65;100.00
5146;BME280;2591;48.144;15.152;2023-02-03T09:12:58;77195.66;;;-144.65;100.00
5146;BME280;2591;48.144;15.152;2023-02-03T09:15:26;77199.72;;;-144.65;100.00
5146;BME280;2591;48.144;15.152;2023-02-03T09:17:54;77195.66;;;-144.65;100.00
5146;BME280;2591;48.144;15.152;2023-02-03T09:20:23;77203.81;;;-144.65;100.00
5146;BME280;2591;48.144;15.152;2023-02-03T09:22:52;77201.78;;;-144.65;100.00
5146;BME280;2591;48.144;15.152;2023-02-03T09:25:20;77203.81;;;-144.65;100.00
5146;BME280;2591;48.144;15.152;2023-02-03T09:27:48;77191.56;;;-144.65;100.00
5146;BME280;2591;48.144;15.152;2023-02-03T09:30:17;77175.25;;;-144.65;100.00
5146;BME280;2591;48.144;15.152;2023-02-03T09:32:45;77179.34;;;-144.65;100.00
5146;BME280;2591;48.144;15.152;2023-02-03T09:35:19;77154.88;;;-144.65;100.00
5146;BME280;2591;48.144;15.152;2023-02-03T09:37:47;77138.56;;;-144.65;100.00
5146;BME280;2591;48.144;15.152;2023-02-03T09:40:19;77138.56;;;-144.65;100.00
5146;BME280;2591;48.144;15.152;2023-02-03T09:43:00;77132.44;;;-144.65;100.00
5146;BME280;2591;48.144;15.152;2023-02-03T09:45:31;77128.34;;;-144.65;100.00
5146;BME280;2591;48.144;15.152;2023-02-03T09:48:04;77118.16;;;-144.65;100.00
5146;BME280;2591;48.144;15.152;2023-02-03T09:50:34;77110.00;;;-144.65;100.00
5146;BME280;2591;48.144;15.152;2023-02-03T09:53:05;77097.75;;;-144.65;100.00
5146;BME280;2591;48.144;15.152;2023-02-03T09:55:37;77085.53;;;-144.65;100.00
5146;BME280;2591;48.144;15.152;2023-02-03T09:58:09;77065.13;;;-144.65;100.00
5146;BME280;2591;48.144;15.152;2023-02-03T10:00:42;77056.97;;;-144.65;100.00
5146;BME280;2591;48.144;15.152;2023-02-03T10:03:19;77044.75;;;-144.65;100.00
5146;BME280;2591;48.144;15.152;2023-02-03T10:06:07;76981.53;;;-144.65;100.00
5146;BME280;2591;48.144;15.152;2023-02-03T10:08:55;76993.75;;;-144.65;100.00
5146;BME280;2591;48.144;15.152;2023-02-03T10:11:37;76991.72;;;-144.65;100.00
5146;BME280;2591;48.144;15.152;2023-02-03T10:14:20;76979.47;;;-144.65;100.00
5146;BME280;2591;48.144;15.152;2023-02-03T10:17:01;76952.97;;;-144.65;100.00
5146;BME280;2591;48.144;15.152;2023-02-03T10:19:37;76942.78;;;-144.65;100.00
5146;BME280;2591;48.144;15.152;2023-02-03T10:22:12;76946.84;;;-144.65;100.00
5146;BME280;2591;48.144;15.152;2023-02-03T10:24:46;76924.41;;;-144.65;100.00
5146;BME280;2591;48.144;15.152;2023-02-03T10:27:17;76910.16;;;-144.65;100.00
5146;BME280;2591;48.144;15.152;2023-02-03T10:29:50;76912.19;;;-144.65;100.00
5146;BME280;2591;48.144;15.152;2023-02-03T10:32:23;76910.16;;;-144.65;100.00
5146;BME280;2591;48.144;15.152;2023-02-03T10:34:53;76895.88;;;-144.65;100.00
5146;BME280;2591;48.144;15.152;2023-02-03T10:37:25;76906.06;;;-144.65;100.00
5146;BME280;2591;48.144;15.152;2023-02-03T10:39:56;76912.19;;;-144.65;100.00
5146;BME280;2591;48.144;15.152;2023-02-03T10:42:26;76879.56;;;-144.65;100.00
5146;BME280;2591;48.144;15.152;2023-02-03T10:45:16;76881.59;;;-144.65;100.00
5146;BME280;2591;48.144;15.152;2023-02-03T10:47:47;76877.50;;;-144.65;100.00
5146;BME280;2591;48.144;15.152;2023-02-03T10:50:18;76887.72;;;-144.65;100.00
5146;BME280;2591;48.144;15.152;2023-02-03T10:52:46;76877.50;;;-144.65;100.00
5146;BME280;2591;48.144;15.152;2023-02-03T10:55:29;76881.59;;;-144.65;100.00
5146;BME280;2591;48.144;15.152;2023-02-03T10:58:05;76893.81;;;-144.65;100.00
5146;BME280;2591;48.144;15.152;2023-02-03T11:00:40;76887.72;;;-144.65;100.00
5146;BME280;2591;48.144;15.152;2023-02-03T11:03:20;76877.50;;;-144.65;100.00
5146;BME280;2591;48.144;15.152;2023-02-03T11:06:06;76865.28;;;-144.65;100.00
5146;BME280;2591;48.144;15.152;2023-02-03T11:08:36;76857.13;;;-144.65;100.00
5146;BME280;2591;48.144;15.152;2023-02-03T11:11:06;76844.88;;;-144.65;100.00
5146;BME280;2591;48.144;15.152;2023-02-03T11:13:35;76842.84;;;-144.65;100.00
5146;BME280;2591;48.144;15.152;2023-02-03T11:16:05;76840.81;;;-144.65;100.00
5146;BME280;2591;48.144;15.152;2023-02-03T11:18:41;76814.31;;;-144.65;100.00
5146;BME280;2591;48.144;15.152;2023-02-03T11:21:13;76808.19;;;-144.65;100.00
5146;BME280;2591;48.144;15.152;2023-02-03T11:23:46;76783.72;;;-144.65;100.00
5146;BME280;2591;48.144;15.152;2023-02-03T11:26:18;76795.94;;;-144.65;100.00
5146;BME280;2591;48.144;15.152;2023-02-03T11:28:49;76791.88;;;-144.65;100.00
5146;BME280;2591;48.144;15.152;2023-02-03T11:31:21;76793.91;;;-144.65;100.00
5146;BME280;2591;48.144;15.152;2023-02-03T11:33:54;76795.94;;;-144.65;100.00
5146;BME280;2591;48.144;15.152;2023-02-03T11:36:25;76781.66;;;-144.65;100.00
5146;BME280;2591;48.144;15.152;2023-02-03T11:39:18;76775.56;;;-144.65;100.00
5146;BME280;2591;48.144;15.152;2023-02-03T11:41:46;76773.50;;;-144.65;100.00
5146;BME280;2591;48.144;15.152;2023-02-03T11:44:17;76767.41;;;-144.65;99.02
5146;BME280;2591;48.144;15.152;2023-02-03T11:46:47;76720.50;;;-144.65;93.68
5146;BME280;2591;48.144;15.152;2023-02-03T11:49:33;76742.94;;;-144.65;93.03
5146;BME280;2591;48.144;15.152;2023-02-03T11:52:09;76751.09;;;-144.65;94.34
5146;BME280;2591;48.144;15.152;2023-02-03T11:54:49;76742.94;;;-144.65;93.13
5146;BME280;2591;48.144;15.152;2023-02-03T11:57:27;76724.56;;;-144.65;91.04
5146;BME280;2591;48.144;15.152;2023-02-03T12:00:07;76728.66;;;-144.65;91.91
5146;BME280;2591;48.144;15.152;2023-02-03T12:06:03;76704.19;;;-144.65;91.14
5146;BME280;2591;48.144;15.152;2023-02-03T12:08:52;76694.00;;;-144.65;89.50
5146;BME280;2591;48.144;15.152;2023-02-03T12:11:33;76706.22;;;-144.65;91.90
5146;BME280;2591;48.144;15.152;2023-02-03T12:14:19;76694.00;;;-144.65;90.08
5146;BME280;2591;48.144;15.152;2023-02-03T12:17:02;76681.75;;;-144.65;92.50
5146;BME280;2591;48.144;15.152;2023-02-03T12:19:39;76689.91;;;-144.65;92.91
5146;BME280;2591;48.144;15.152;2023-02-03T12:22:18;76689.91;;;-144.65;92.43
5146;BME280;2591;48.144;15.152;2023-02-03T12:24:58;76677.69;;;-144.65;90.00
5146;BME280;2591;48.144;15.152;2023-02-03T12:27:35;76651.16;;;-144.65;89.86
5146;BME280;2591;48.144;15.152;2023-02-03T12:30:14;76653.19;;;-144.65;88.91
5146;BME280;2591;48.144;15.152;2023-02-03T12:32:51;76636.91;;;-144.65;87.51
5146;BME280;2591;48.144;15.152;2023-02-03T12:35:24;76638.94;;;-144.65;87.19
5146;BME280;2591;48.144;15.152;2023-02-03T12:38:02;76634.84;;;-144.65;86.72
5146;BME280;2591;48.144;15.152;2023-02-03T12:40:35;76616.50;;;-144.65;86.44
5146;BME280;2591;48.144;15.152;2023-02-03T12:43:17;76604.28;;;-144.65;85.58
5146;BME280;2591;48.144;15.152;2023-02-03T12:45:50;76583.88;;;-144.65;85.14
5146;BME280;2591;48.144;15.152;2023-02-03T12:48:22;76592.03;;;-144.65;85.12
5146;BME280;2591;48.144;15.152;2023-02-03T12:50:55;76598.16;;;-144.65;86.30
5146;BME280;2591;48.144;15.152;2023-02-03T12:53:30;76604.28;;;-144.65;86.40
5146;BME280;2591;48.144;15.152;2023-02-03T12:56:03;76592.03;;;-144.65;85.99
5146;BME280;2591;48.144;15.152;2023-02-03T12:58:38;76587.94;;;-144.65;86.41
5146;BME280;2591;48.144;15.152;2023-02-03T13:01:12;76585.91;;;-144.65;85.41
5146;BME280;2591;48.144;15.152;2023-02-03T13:03:48;76571.63;;;-144.65;85.38